Time;durP1;ratioP1;P1;durP2;ratioP2;P2;SDS_P1;SDS_P2;PMS_P1;PMS_P2;Temp;Humidity;BMP_temperature;BMP_pressure;BME280_temperature;BME280_humidity;BME280_pressure;Samples;Min_cycle;Max_cycle;Signal;HPM_P1;HPM_P2
2023/10/13 00:01:34;;;;;;;0.00;0.00;;;17.40;99.90;;;;;;4981143;28;20633;-59
2023/10/13 00:04:05;;;;;;;0.00;0.00;;;;;;;;;;4983917;28;20047;-59
2023/10/13 00:06:31;;;;;;;0.00;0.00;;;17.70;99.90;;;;;;4979342;28;20038;-54
2023/10/13 00:08:56;;;;;;;0.00;0.00;;;17.60;99.90;;;;;;4985803;28;20041;-55
2023/10/13 00:11:22;;;;;;;0.00;0.00;;;17.60;99.90;;;;;;4982943;28;20042;-52
2023/10/13 00:13:50;;;;;;;0.00;0.00;;;17.60;99.90;;;;;;4985492;28;20034;-55
2023/10/13 00:16:27;;;;;;;0.00;0.00;;;17.50;99.90;;;;;;4983278;28;20422;-58
2023/10/13 00:18:57;;;;;;;0.00;0.00;;;17.60;99.90;;;;;;4985210;28;20034;-59
2023/10/13 00:21:32;;;;;;;0.00;0.00;;;17.70;99.90;;;;;;4983545;28;20114;-57
2023/10/13 00:24:06;;;;;;;0.00;0.00;;;17.70;99.90;;;;;;4980817;28;20066;-60
2023/10/13 00:26:35;;;;;;;0.00;0.00;;;17.80;99.90;;;;;;4986980;28;20050;-59
2023/10/13 00:29:28;;;;;;;0.00;0.00;;;17.70;99.90;;;;;;4984177;28;20387;-57
2023/10/13 00:31:54;;;;;;;0.00;0.00;;;17.80;99.90;;;;;;5000864;28;20042;-60
2023/10/13 00:34:28;;;;;;;0.00;0.00;;;17.80;99.90;;;;;;5003327;28;20413;-60
2023/10/13 00:37:16;;;;;;;0.00;0.00;;;17.70;99.90;;;;;;4993216;28;20038;-60
2023/10/13 00:39:44;;;;;;;0.00;0.00;;;17.60;99.90;;;;;;4998022;28;20038;-60
2023/10/13 00:42:18;;;;;;;0.00;0.00;;;17.60;99.90;;;;;;4983727;28;20469;-60
2023/10/13 00:44:48;;;;;;;0.00;0.00;;;17.50;99.90;;;;;;4984485;28;20074;-60
2023/10/13 00:47:17;;;;;;;0.00;0.00;;;17.60;99.90;;;;;;4982623;28;20073;-60
2023/10/13 00:49:47;;;;;;;0.00;0.00;;;17.70;99.90;;;;;;4984301;28;20037;-60
2023/10/13 00:52:15;;;;;;;0.00;0.00;;;17.70;99.90;;;;;;4984579;28;20502;-59
2023/10/13 00:54:45;;;;;;;0.00;0.00;;;17.70;99.90;;;;;;4983377;28;20042;-59
2023/10/13 00:57:26;;;;;;;0.00;0.00;;;17.70;99.90;;;;;;4983546;28;20133;-59
2023/10/13 00:59:57;;;;;;;0.00;0.00;;;17.70;99.90;;;;;;4983546;28;20042;-58
2023/10/13 01:02:37;;;;;;;0.00;0.00;;;17.80;99.90;;;;;;4985545;28;22234;-60
2023/10/13 01:05:04;;;;;;;0.00;0.00;;;17.80;99.90;;;;;;4979485;28;20044;-57
2023/10/13 01:07:30;;;;;;;0.00;0.00;;;17.80;99.90;;;;;;4983424;28;20050;-60
2023/10/13 01:09:55;;;;;;;0.00;0.00;;;17.80;99.90;;;;;;4983370;28;20124;-59
2023/10/13 01:12:24;;;;;;;0.00;0.00;;;17.70;99.90;;;;;;4983197;28;20453;-60
2023/10/13 01:14:50;;;;;;;0.00;0.00;;;17.70;99.90;;;;;;4984760;28;20669;-60
2023/10/13 01:17:16;;;;;;;0.00;0.00;;;17.80;99.90;;;;;;4982996;28;20038;-56
2023/10/13 01:19:45;;;;;;;0.00;0.00;;;17.80;99.90;;;;;;4983882;28;20085;-53
2023/10/13 01:22:11;;;;;;;0.00;0.00;;;17.80;99.90;;;;;;4981757;28;20042;-56
2023/10/13 01:24:37;;;;;;;0.00;0.00;;;17.70;99.90;;;;;;4983016;28;20064;-56
2023/10/13 01:27:25;;;;;;;0.00;0.00;;;17.70;99.90;;;;;;4979572;28;20411;-54
2023/10/13 01:29:58;;;;;;;0.00;0.00;;;17.80;99.90;;;;;;4980117;28;20050;-54
2023/10/13 01:32:24;;;;;;;0.00;0.00;;;17.70;99.90;;;;;;4983155;28;20057;-54
2023/10/13 01:34:55;;;;;;;0.00;0.00;;;17.80;99.90;;;;;;4993791;28;20042;-56
2023/10/13 01:37:21;;;;;;;0.00;0.00;;;17.80;99.90;;;;;;4977191;28;20039;-59
2023/10/13 01:39:47;;;;;;;0.00;0.00;;;17.80;99.90;;;;;;4980730;28;20037;-58
2023/10/13 01:42:19;;;;;;;0.00;0.00;;;17.80;99.90;;;;;;4977645;28;20034;-58
2023/10/13 01:44:45;;;;;;;0.00;0.00;;;17.80;99.90;;;;;;4983492;28;20073;-60
2023/10/13 01:47:12;;;;;;;0.00;0.00;;;17.80;99.90;;;;;;4982489;28;20143;-59
2023/10/13 01:49:42;;;;;;;0.00;0.00;;;17.80;99.90;;;;;;4983503;28;20490;-60
2023/10/13 01:52:12;;;;;;;0.00;0.00;;;17.80;99.90;;;;;;4982159;28;20038;-58
2023/10/13 01:54:41;;;;;;;0.00;0.00;;;17.80;99.90;;;;;;4982868;28;20491;-60
2023/10/13 01:57:13;;;;;;;0.00;0.00;;;17.90;99.90;;;;;;4982342;28;20386;-60
2023/10/13 01:59:43;;;;;;;0.00;0.00;;;17.80;99.90;;;;;;4983648;28;20570;-60
2023/10/13 02:02:12;;;;;;;0.00;0.00;;;17.80;99.90;;;;;;4981457;28;20034;-60
2023/10/13 02:04:56;;;;;;;0.00;0.00;;;17.90;99.90;;;;;;4980785;28;20042;-60
2023/10/13 02:07:26;;;;;;;;;;;17.90;99.90;;;;;;4982638;28;20624;-60
2023/10/13 02:09:54;;;;;;;0.00;0.00;;;17.90;99.90;;;;;;4980413;28;19917;-59
2023/10/13 02:12:25;;;;;;;0.00;0.00;;;17.80;99.90;;;;;;4987402;28;20781;-60
2023/10/13 02:14:51;;;;;;;0.00;0.00;;;17.70;99.90;;;;;;4978794;28;20054;-60
2023/10/13 02:17:21;;;;;;;0.00;0.00;;;17.80;99.90;;;;;;4977668;28;20037;-60
2023/10/13 02:19:46;;;;;;;0.00;0.00;;;17.80;99.90;;;;;;4988702;28;20042;-58
2023/10/13 02:22:24;;;;;;;0.00;0.00;;;17.70;99.90;;;;;;4979575;28;20036;-61
2023/10/13 02:24:52;;;;;;;0.00;0.00;;;17.70;99.90;;;;;;4980196;28;20038;-60
2023/10/13 02:27:17;;;;;;;0.00;0.00;;;17.70;99.90;;;;;;4979256;28;20097;-59
2023/10/13 02:29:46;;;;;;;0.00;0.00;;;17.70;99.90;;;;;;4975910;28;20327;-58
2023/10/13 02:32:20;;;;;;;0.00;0.00;;;17.60;99.90;;;;;;4982050;28;20275;-60
2023/10/13 02:34:46;;;;;;;0.00;0.00;;;17.60;99.90;;;;;;4985765;28;20034;-60
2023/10/13 02:37:13;;;;;;;0.00;0.00;;;17.50;99.90;;;;;;4985364;28;20517;-58
2023/10/13 02:39:42;;;;;;;0.00;0.00;;;17.60;99.90;;;;;;4986889;28;20034;-59
2023/10/13 02:42:08;;;;;;;0.00;0.00;;;17.70;99.90;;;;;;4985638;28;20038;-59
2023/10/13 02:44:36;;;;;;;0.00;0.00;;;17.70;99.90;;;;;;4986164;28;20053;-60
2023/10/13 02:47:13;;;;;;;0.00;0.00;;;17.70;99.90;;;;;;4985679;28;20417;-59
2023/10/13 02:49:43;;;;;;;0.00;0.00;;;17.70;99.90;;;;;;4989223;28;20035;-58
2023/10/13 02:52:12;;;;;;;0.00;0.00;;;17.60;99.90;;;;;;4982197;28;20058;-60
2023/10/13 02:54:47;;;;;;;0.00;0.00;;;17.70;99.90;;;;;;4985340;28;20095;-58
2023/10/13 02:57:15;;;;;;;0.00;0.00;;;17.70;99.90;;;;;;4986460;28;20034;-56
2023/10/13 03:00:31;;;;;;;0.00;0.00;;;17.90;99.90;;;;;;4987135;28;20117;-54
2023/10/13 03:02:29;;;;;;;0.00;0.00;;;17.70;99.90;;;;;;4978071;28;20107;-55
2023/10/13 03:05:00;;;;;;;0.00;0.00;;;17.60;99.90;;;;;;4985218;28;20067;-55
2023/10/13 03:07:29;;;;;;;0.00;0.00;;;17.60;99.90;;;;;;4984690;28;20034;-58
2023/10/13 03:10:09;;;;;;;0.00;0.00;;;17.70;99.90;;;;;;4987602;28;20375;-58
2023/10/13 03:12:35;;;;;;;0.00;0.00;;;;;;;;;;5002688;28;20556;-61
2023/10/13 03:15:17;;;;;;;0.00;0.00;;;;;;;;;;4986791;28;20236;-60
2023/10/13 03:17:44;;;;;;;0.00;0.00;;;;;;;;;;4984661;28;21048;-60
2023/10/13 03:20:15;;;;;;;0.00;0.00;;;;;;;;;;4982923;28;20030;-59
2023/10/13 03:22:44;;;;;;;0.00;0.00;;;;;;;;;;4983012;28;20044;-58
2023/10/13 03:25:17;;;;;;;0.00;0.00;;;;;;;;;;4981880;28;20510;-58
2023/10/13 03:30:20;;;;;;;0.00;0.00;;;;;;;;;;4978309;28;20995;-58
2023/10/13 03:32:47;;;;;;;0.00;0.00;;;;;;;;;;4985816;28;20038;-59
2023/10/13 03:35:16;;;;;;;0.00;0.00;;;;;;;;;;4984823;28;20033;-59
2023/10/13 03:37:42;;;;;;;0.00;0.00;;;;;;;;;;4984644;28;20039;-58
2023/10/13 03:46:00;;;;;;;0.00;0.00;;;;;;;;;;4961917;28;20049;-60
2023/10/13 03:51:14;;;;;;;0.00;0.00;;;;;;;;;;4982497;28;20043;-60
2023/10/13 03:53:53;;;;;;;0.00;0.00;;;;;;;;;;4986910;28;20066;-60
2023/10/13 03:59:06;;;;;;;0.00;0.00;;;;;;;;;;4979502;28;20042;-60
2023/10/13 04:01:36;;;;;;;0.00;0.00;;;;;;;;;;4983264;28;20076;-59
2023/10/13 04:04:11;;;;;;;0.00;0.00;;;;;;;;;;4982437;28;20042;-61
2023/10/13 04:17:22;;;;;;;0.00;0.00;;;;;;;;;;4983615;28;20042;-59
2023/10/13 04:39:09;;;;;;;0.00;0.00;;;;;;;;;;4981963;28;20554;-56
2023/10/13 04:49:28;;;;;;;0.00;0.00;;;;;;;;;;4990322;28;19917;-56
2023/10/13 04:52:12;;;;;;;0.00;0.00;;;;;;;;;;4983937;28;20038;-55
2023/10/13 06:29:37;;;;;;;0.00;0.00;;;;;;;;;;4998943;28;20048;-56
2023/10/13 06:32:10;;;;;;;0.00;0.00;;;;;;;;;;4990241;28;20043;-53
2023/10/13 06:34:44;;;;;;;0.00;0.00;;;;;;;;;;5001083;28;20560;-55
2023/10/13 06:37:23;;;;;;;0.00;0.00;;;;;;;;;;4999421;28;20058;-55
2023/10/13 06:40:14;;;;;;;0.00;0.00;;;;;;;;;;4980511;28;20035;-56
2023/10/13 06:42:43;;;;;;;0.00;0.00;;;;;;;;;;4986913;28;20489;-56
2023/10/13 06:45:09;;;;;;;0.00;0.00;;;;;;;;;;4982229;28;20046;-55
2023/10/13 06:47:42;;;;;;;0.00;0.00;;;;;;;;;;4981681;28;20039;-55
2023/10/13 06:50:15;;;;;;;0.00;0.00;;;;;;;;;;4982094;28;20412;-56
2023/10/13 06:52:41;;;;;;;0.00;0.00;;;;;;;;;;4981119;28;20042;-54
2023/10/13 06:55:10;;;;;;;0.00;0.00;;;;;;;;;;4981196;28;20043;-56
2023/10/13 06:57:42;;;;;;;0.00;0.00;;;;;;;;;;4981729;28;20096;-55
2023/10/13 07:00:12;;;;;;;0.00;0.00;;;;;;;;;;4980803;28;20629;-54
2023/10/13 07:02:38;;;;;;;0.00;0.00;;;;;;;;;;4981160;28;20072;-56
2023/10/13 07:05:07;;;;;;;0.00;0.00;;;;;;;;;;4981522;28;20129;-56
2023/10/13 07:07:33;;;;;;;0.00;0.00;;;;;;;;;;5001398;28;20034;-55
2023/10/13 07:09:59;;;;;;;0.00;0.00;;;;;;;;;;4985885;28;20062;-55
2023/10/13 07:12:33;;;;;;;0.00;0.00;;;;;;;;;;4976491;28;20039;-54
2023/10/13 07:15:10;;;;;;;0.00;0.00;;;;;;;;;;4983045;28;20046;-55
2023/10/13 07:17:40;;;;;;;0.00;0.00;;;;;;;;;;4990579;28;20584;-60
2023/10/13 07:20:23;;;;;;;0.00;0.00;;;;;;;;;;4980890;28;20030;-60
2023/10/13 07:23:05;;;;;;;0.00;0.00;;;;;;;;;;4980180;28;20080;-59
2023/10/13 07:25:40;;;;;;;0.00;0.00;;;;;;;;;;4986566;28;20281;-55
2023/10/13 07:28:08;;;;;;;0.00;0.00;;;;;;;;;;4986042;28;20031;-54
2023/10/13 07:33:19;;;;;;;0.00;0.00;;;;;;;;;;4980139;28;20038;-54
2023/10/13 07:35:51;;;;;;;0.00;0.00;;;;;;;;;;4980265;28;20056;-57
2023/10/13 07:38:21;;;;;;;0.00;0.00;;;;;;;;;;4979502;28;20065;-57
2023/10/13 07:40:51;;;;;;;0.00;0.00;;;;;;;;;;4985845;28;20061;-55
2023/10/13 07:43:21;;;;;;;0.00;0.00;;;;;;;;;;4983820;28;20129;-54
2023/10/13 07:45:51;;;;;;;0.00;0.00;;;;;;;;;;4988035;28;20376;-57
2023/10/13 07:48:20;;;;;;;0.00;0.00;;;;;;;;;;4983904;28;20034;-56
2023/10/13 07:51:03;;;;;;;0.00;0.00;;;;;;;;;;4985103;28;20117;-56
2023/10/13 07:53:35;;;;;;;0.00;0.00;;;;;;;;;;4991923;28;20061;-55
2023/10/13 07:56:17;;;;;;;0.00;0.00;;;;;;;;;;4984284;28;20052;-49
2023/10/13 07:58:52;;;;;;;0.00;0.00;;;;;;;;;;4985594;28;20097;-53
2023/10/13 08:01:21;;;;;;;0.00;0.00;;;;;;;;;;4982732;28;20081;-55
2023/10/13 08:03:49;;;;;;;0.00;0.00;;;;;;;;;;4989545;28;20100;-53
2023/10/13 08:08:43;;;;;;;0.00;0.00;;;;;;;;;;4983870;28;20542;-53
2023/10/13 08:13:53;;;;;;;0.00;0.00;;;;;;;;;;4981001;28;20050;-54
2023/10/13 08:16:23;;;;;;;0.00;0.00;;;;;;;;;;4982998;28;20045;-54
2023/10/13 08:18:52;;;;;;;0.00;0.00;;;;;;;;;;4987195;28;20061;-55
2023/10/13 08:21:25;;;;;;;0.00;0.00;;;;;;;;;;4986477;28;20378;-53
2023/10/13 08:23:57;;;;;;;0.00;0.00;;;;;;;;;;4986356;28;20036;-53
2023/10/13 08:26:29;;;;;;;0.00;0.00;;;;;;;;;;4983943;28;20065;-55
2023/10/13 08:29:49;;;;;;;0.00;0.00;;;;;;;;;;4979269;28;20451;-55
2023/10/13 08:34:38;;;;;;;0.00;0.00;;;;;;;;;;4986259;28;20038;-54
2023/10/13 08:37:28;;;;;;;0.00;0.00;;;;;;;;;;4984650;28;20790;-54
2023/10/13 08:42:52;;;;;;;0.00;0.00;;;;;;;;;;4990558;28;20097;-55
2023/10/13 08:53:32;;;;;;;0.00;0.00;;;;;;;;;;4976446;28;20429;-61
2023/10/13 09:01:39;;;;;;;0.00;0.00;;;;;;;;;;4976465;28;20482;-59
2023/10/13 09:07:35;;;;;;;0.00;0.00;;;;;;;;;;4982086;28;20788;-58
2023/10/13 09:09:59;;;;;;;0.00;0.00;;;;;;;;;;4981157;28;20050;-60
2023/10/13 09:14:57;;;;;;;0.00;0.00;;;;;;;;;;4982208;28;20371;-62
2023/10/13 09:25:34;;;;;;;0.00;0.00;;;;;;;;;;4991293;28;20154;-58
2023/10/13 09:28:00;;;;;;;0.00;0.00;;;;;;;;;;4982464;28;20598;-60
2023/10/13 09:30:31;;;;;;;0.00;0.00;;;;;;;;;;4990779;28;20138;-55
2023/10/13 09:33:08;;;;;;;0.00;0.00;;;;;;;;;;4988346;28;20097;-59
2023/10/13 09:35:36;;;;;;;0.00;0.00;;;;;;;;;;5001576;28;20038;-58
2023/10/13 09:38:03;;;;;;;0.00;0.00;;;;;;;;;;4988894;28;20132;-57
2023/10/13 09:42:59;;;;;;;0.00;0.00;;;;;;;;;;4989648;28;20081;-60
2023/10/13 09:45:29;;;;;;;0.00;0.00;;;;;;;;;;4997609;28;20128;-57
2023/10/13 09:47:59;;;;;;;0.00;0.00;;;;;;;;;;4992808;28;20465;-58
2023/10/13 09:50:33;;;;;;;0.00;0.00;;;;;;;;;;4976557;28;20039;-58
2023/10/13 09:53:00;;;;;;;0.00;0.00;;;;;;;;;;4988176;28;20359;-63
2023/10/13 09:55:39;;;;;;;0.00;0.00;;;;;;;;;;4993074;28;20046;-58
2023/10/13 09:58:11;;;;;;;0.00;0.00;;;;;;;;;;4991778;28;20080;-55
2023/10/13 10:06:14;;;;;;;0.00;0.00;;;;;;;;;;4988802;28;20083;-53
2023/10/13 10:08:48;;;;;;;0.00;0.00;;;;;;;;;;4981925;28;20100;-56
2023/10/13 10:11:27;;;;;;;0.00;0.00;;;;;;;;;;4978940;28;20046;-52
2023/10/13 10:13:57;;;;;;;0.00;0.00;;;;;;;;;;4987439;28;20041;-54
2023/10/13 10:16:32;;;;;;;0.00;0.00;;;;;;;;;;4978895;28;20046;-60
2023/10/13 10:19:01;;;;;;;0.00;0.00;;;;;;;;;;4979054;28;20129;-57
2023/10/13 10:21:35;;;;;;;0.00;0.00;;;;;;;;;;4975642;28;20117;-56
2023/10/13 10:24:07;;;;;;;0.00;0.00;;;;;;;;;;4986783;28;20065;-57
2023/10/13 10:26:33;;;;;;;0.00;0.00;;;;;;;;;;4983888;28;20042;-61
2023/10/13 10:29:07;;;;;;;0.00;0.00;;;;;;;;;;4984285;28;20041;-57
2023/10/13 10:31:44;;;;;;;0.00;0.00;;;;;;;;;;4995213;28;20038;-58
2023/10/13 10:34:14;;;;;;;0.00;0.00;;;;;;;;;;4979061;28;20027;-59
2023/10/13 10:36:42;;;;;;;0.00;0.00;;;;;;;;;;4980831;28;20129;-59
2023/10/13 10:39:11;;;;;;;0.00;0.00;;;;;;;;;;4982336;28;20030;-59
2023/10/13 10:44:16;;;;;;;0.00;0.00;;;;;;;;;;4985465;28;20454;-60
2023/10/13 10:46:51;;;;;;;0.00;0.00;;;;;;;;;;4998255;28;20485;-60
2023/10/13 10:49:27;;;;;;;0.00;0.00;;;;;;;;;;4978610;28;20035;-59
2023/10/13 10:51:57;;;;;;;0.00;0.00;;;;;;;;;;4981204;28;20525;-58
2023/10/13 10:54:30;;;;;;;0.00;0.00;;;;;;;;;;4991368;28;20035;-59
2023/10/13 10:56:59;;;;;;;0.00;0.00;;;;;;;;;;4985066;28;20038;-57
2023/10/13 10:59:29;;;;;;;0.00;0.00;;;;;;;;;;4997254;28;20035;-58
2023/10/13 11:01:58;;;;;;;0.00;0.00;;;;;;;;;;4990271;28;20135;-58
2023/10/13 11:04:33;;;;;;;0.00;0.00;;;;;;;;;;4983810;28;20454;-59
2023/10/13 11:06:59;;;;;;;0.00;0.00;;;;;;;;;;4985003;28;20343;-58
2023/10/13 11:09:32;;;;;;;0.00;0.00;;;;;;;;;;4983923;28;20054;-60
2023/10/13 11:12:15;;;;;;;0.00;0.00;;;;;;;;;;4983998;28;20089;-58
2023/10/13 11:14:48;;;;;;;0.00;0.00;;;;;;;;;;4995108;28;20031;-59
2023/10/13 11:17:24;;;;;;;0.00;0.00;;;;;;;;;;4988822;28;20053;-55
2023/10/13 11:19:50;;;;;;;0.00;0.00;;;;;;;;;;4999393;28;20031;-55
2023/10/13 11:22:41;;;;;;;0.00;0.00;;;;;;;;;;4985160;28;20037;-55
2023/10/13 11:25:10;;;;;;;0.00;0.00;;;;;;;;;;4990489;28;20561;-59
2023/10/13 11:30:19;;;;;;;0.00;0.00;;;;;;;;;;4994750;28;20402;-58
2023/10/13 11:32:46;;;;;;;0.00;0.00;;;;;;;;;;5003267;28;20044;-58
2023/10/13 11:35:23;;;;;;;0.00;0.00;;;;;;;;;;4983403;28;20391;-59
2023/10/13 11:38:25;;;;;;;0.00;0.00;;;;;;;;;;4989950;28;20130;-59
2023/10/13 11:41:06;;;;;;;0.00;0.00;;;;;;;;;;4988539;28;20052;-59
2023/10/13 11:49:17;;;;;;;0.00;0.00;;;;;;;;;;4992345;28;20030;-59
2023/10/13 11:51:47;;;;;;;0.00;0.00;;;;;;;;;;4984193;28;20027;-60
2023/10/13 11:54:17;;;;;;;0.00;0.00;;;;;;;;;;4984178;28;20267;-58
2023/10/13 11:56:44;;;;;;;0.00;0.00;;;;;;;;;;4985248;28;20274;-59
2023/10/13 11:59:24;;;;;;;0.00;0.00;;;;;;;;;;4985267;28;20041;-59
2023/10/13 12:07:23;;;;;;;0.00;0.00;;;;;;;;;;4991729;28;20473;-59
2023/10/13 12:12:22;;;;;;;;;;;;;;;;;;4998623;28;20092;-60
2023/10/13 12:14:55;;;;;;;0.00;0.00;;;;;;;;;;4986899;28;19914;-59
2023/10/13 12:17:39;;;;;;;0.00;0.00;;;;;;;;;;4984439;28;20113;-60
2023/10/13 12:20:09;;;;;;;0.00;0.00;;;;;;;;;;4992869;28;20183;-58
2023/10/13 12:22:54;;;;;;;0.00;0.00;;;;;;;;;;4991909;28;20049;-56
2023/10/13 12:28:12;;;;;;;0.00;0.00;;;;;;;;;;4982420;28;20628;-59
2023/10/13 12:30:54;;;;;;;0.00;0.00;;;;;;;;;;4990222;28;20049;-59
2023/10/13 12:33:24;;;;;;;0.00;0.00;;;;;;;;;;4994682;28;20073;-59
2023/10/13 12:36:09;;;;;;;0.00;0.00;;;;;;;;;;4988341;28;20038;-60
2023/10/13 12:38:37;;;;;;;0.00;0.00;;;;;;;;;;4990820;28;20046;-57
2023/10/13 12:52:33;;;;;;;0.00;0.00;;;;;;;;;;4958731;28;20053;-60
2023/10/13 12:55:06;;;;;;;0.00;0.00;;;;;;;;;;4977686;28;20038;-61
2023/10/13 12:57:32;;;;;;;0.00;0.00;;;;;;;;;;4989593;28;20057;-64
2023/10/13 12:59:58;;;;;;;0.00;0.00;;;;;;;;;;4986415;28;20045;-60
2023/10/13 13:02:25;;;;;;;0.00;0.00;;;;;;;;;;4976637;28;20113;-61
2023/10/13 13:05:01;;;;;;;0.00;0.00;;;;;;;;;;4976049;28;20034;-60
2023/10/13 13:07:31;;;;;;;0.00;0.00;;;;;;;;;;4984333;28;20052;-60
2023/10/13 13:09:59;;;;;;;0.00;0.00;;;;;;;;;;4983036;28;20032;-60
2023/10/13 13:12:28;;;;;;;0.00;0.00;;;;;;;;;;4977906;28;20458;-61
2023/10/13 13:14:55;;;;;;;0.00;0.00;;;;;;;;;;4986700;28;20353;-59
2023/10/13 13:17:21;;;;;;;0.00;0.00;;;;;;;;;;4986653;28;20089;-59
2023/10/13 13:19:47;;;;;;;0.00;0.00;;;;;;;;;;4985613;28;20038;-60
2023/10/13 13:22:13;;;;;;;0.00;0.00;;;;;;;;;;4982362;28;20038;-60
2023/10/13 13:24:46;;;;;;;0.00;0.00;;;;;;;;;;4987061;28;20034;-60
2023/10/13 13:27:19;;;;;;;0.00;0.00;;;;;;;;;;4975781;28;20462;-60
2023/10/13 13:29:45;;;;;;;;;;;;;;;;;;4974403;28;20243;-60
2023/10/13 13:32:24;;;;;;;0.00;0.00;;;;;;;;;;4982789;28;19925;-59
2023/10/13 13:35:13;;;;;;;0.00;0.00;;;;;;;;;;4977347;28;20113;-58
2023/10/13 13:37:39;;;;;;;0.00;0.00;;;;;;;;;;4991151;28;20477;-59
2023/10/13 13:40:15;;;;;;;0.00;0.00;;;;;;;;;;4978913;28;20157;-59
2023/10/13 13:42:42;;;;;;;0.00;0.00;;;;;;;;;;4979889;28;20494;-59
2023/10/13 13:45:22;;;;;;;0.00;0.00;;;;;;;;;;4985342;28;20105;-58
2023/10/13 13:47:53;;;;;;;0.00;0.00;;;;;;;;;;4974968;28;20502;-53
2023/10/13 13:50:24;;;;;;;0.00;0.00;;;;;;;;;;4975657;28;20041;-55
2023/10/13 13:52:52;;;;;;;0.00;0.00;;;;;;;;;;4977022;28;20228;-54
2023/10/13 13:55:18;;;;;;;0.00;0.00;;;;;;;;;;4981319;28;20030;-55
2023/10/13 13:57:44;;;;;;;0.00;0.00;;;;;;;;;;4985653;28;20039;-54
2023/10/13 14:00:17;;;;;;;0.00;0.00;;;;;;;;;;4982068;28;20636;-56
2023/10/13 14:02:49;;;;;;;0.00;0.00;;;;;;;;;;4976513;28;20040;-56
2023/10/13 14:05:15;;;;;;;0.00;0.00;;;;;;;;;;4975954;28;20096;-56
2023/10/13 14:07:48;;;;;;;0.00;0.00;;;;;;;;;;4981427;28;20045;-55
2023/10/13 14:10:32;;;;;;;0.00;0.00;;;;;;;;;;4976087;28;20361;-54
2023/10/13 14:13:12;;;;;;;0.00;0.00;;;;;;;;;;4978706;28;20038;-56
2023/10/13 14:15:44;;;;;;;0.00;0.00;;;;;;;;;;4986955;28;20038;-57
2023/10/13 14:18:14;;;;;;;0.00;0.00;;;;;;;;;;4975164;28;20049;-54
2023/10/13 14:20:42;;;;;;;0.00;0.00;;;;;;;;;;4975812;28;20060;-56
2023/10/13 14:23:09;;;;;;;0.00;0.00;;;;;;;;;;4976808;28;20034;-56
2023/10/13 14:25:38;;;;;;;0.00;0.00;;;;;;;;;;4975006;28;20064;-53
2023/10/13 14:28:07;;;;;;;0.00;0.00;;;;;;;;;;4971150;28;20038;-54
2023/10/13 14:30:34;;;;;;;0.00;0.00;;;;;;;;;;4971001;28;20042;-53
2023/10/13 14:33:00;;;;;;;0.00;0.00;;;;;;;;;;4982231;28;20038;-53
2023/10/13 14:35:26;;;;;;;0.00;0.00;;;;;;;;;;4972685;28;20469;-50
2023/10/13 14:37:53;;;;;;;0.00;0.00;;;;;;;;;;4976478;28;20065;-54
2023/10/13 14:40:21;;;;;;;0.00;0.00;;;;;;;;;;4974200;28;20703;-50
2023/10/13 14:42:47;;;;;;;0.00;0.00;;;;;;;;;;4976229;28;20042;-53
2023/10/13 14:45:16;;;;;;;0.00;0.00;;;;;;;;;;4974083;28;20043;-52
2023/10/13 14:47:42;;;;;;;0.00;0.00;;;;;;;;;;4976362;28;20065;-50
2023/10/13 14:50:17;;;;;;;0.00;0.00;;;;;;;;;;4974471;28;20031;-55
2023/10/13 14:52:43;;;;;;;0.00;0.00;;;;;;;;;;4976712;28;20038;-52
2023/10/13 14:55:18;;;;;;;0.00;0.00;;;;;;;;;;4972704;28;20079;-57
2023/10/13 14:57:45;;;;;;;0.00;0.00;;;;;;;;;;4973508;28;22046;-53
2023/10/13 15:00:13;;;;;;;0.00;0.00;;;;;;;;;;4976669;28;20034;-52
2023/10/13 15:02:42;;;;;;;0.00;0.00;;;;;;;;;;4979329;28;20035;-50
2023/10/13 15:05:10;;;;;;;0.00;0.00;;;;;;;;;;4978014;28;20113;-50
2023/10/13 15:07:36;;;;;;;0.00;0.00;;;;;;;;;;4980565;28;20038;-53
2023/10/13 15:10:02;;;;;;;0.00;0.00;;;;;;;;;;4980158;28;20031;-54
2023/10/13 15:12:28;;;;;;;0.00;0.00;;;;;;;;;;4987073;28;20121;-53
2023/10/13 15:14:56;;;;;;;0.00;0.00;;;;;;;;;;4977261;28;20467;-51
2023/10/13 15:17:24;;;;;;;0.00;0.00;;;;;;;;;;4980009;28;20066;-55
2023/10/13 15:19:50;;;;;;;0.00;0.00;;;;;;;;;;4979764;28;20038;-51
2023/10/13 15:22:26;;;;;;;0.00;0.00;;;;;;;;;;4978402;28;20108;-54
2023/10/13 15:25:09;;;;;;;0.00;0.00;;;;;;;;;;4981513;28;20080;-52
2023/10/13 15:27:41;;;;;;;0.00;0.00;;;;;;;;;;4995152;28;20568;-53
2023/10/13 15:30:19;;;;;;;0.00;0.00;;;;;;;;;;4980252;28;20737;-53
2023/10/13 15:32:46;;;;;;;0.00;0.00;;;;;;;;;;4990913;28;20038;-52
2023/10/13 15:35:12;;;;;;;0.00;0.00;;;;;;;;;;4975892;28;20053;-52
2023/10/13 15:37:40;;;;;;;0.00;0.00;;;;;;;;;;4982486;28;20041;-50
2023/10/13 15:40:09;;;;;;;0.00;0.00;;;;;;;;;;4991355;28;20061;-51
2023/10/13 15:42:41;;;;;;;0.00;0.00;;;;;;;;;;4998613;28;20034;-52
2023/10/13 15:45:16;;;;;;;0.00;0.00;;;;;;;;;;5004337;28;20042;-54
2023/10/13 15:47:45;;;;;;;0.00;0.00;;;;;;;;;;4995770;28;20722;-53
2023/10/13 15:50:15;;;;;;;0.00;0.00;;;;;;;;;;4995584;28;20038;-52
2023/10/13 15:52:45;;;;;;;0.00;0.00;;;;;;;;;;4986492;28;20034;-55
2023/10/13 15:55:13;;;;;;;0.00;0.00;;;;;;;;;;4985078;28;20037;-54
2023/10/13 15:57:39;;;;;;;0.00;0.00;;;;;;;;;;4988846;28;20583;-53
2023/10/13 16:00:23;;;;;;;0.00;0.00;;;;;;;;;;5002909;28;20053;-54
2023/10/13 16:02:52;;;;;;;0.00;0.00;;;;;;;;;;4984542;28;20833;-54
2023/10/13 16:05:19;;;;;;;0.00;0.00;;;;;;;;;;4985918;28;20094;-54
2023/10/13 16:07:45;;;;;;;0.00;0.00;;;;;;;;;;4983166;28;20042;-54
2023/10/13 16:10:11;;;;;;;0.00;0.00;;;;;;;;;;4989625;28;20488;-54
2023/10/13 16:12:38;;;;;;;0.00;0.00;;;;;;;;;;4985344;28;20050;-53
2023/10/13 16:15:08;;;;;;;0.00;0.00;;;;;;;;;;4985083;28;20037;-54
2023/10/13 16:17:34;;;;;;;0.00;0.00;;;;;;;;;;4983538;28;20041;-54
2023/10/13 16:20:00;;;;;;;0.00;0.00;;;;;;;;;;4987611;28;20041;-56
2023/10/13 16:22:26;;;;;;;0.00;0.00;;;;;;;;;;4995514;28;20034;-54
2023/10/13 16:24:52;;;;;;;0.00;0.00;;;;;;;;;;4988778;28;20030;-52
2023/10/13 16:27:19;;;;;;;0.00;0.00;;;;;;;;;;4992163;28;20026;-56
2023/10/13 16:29:45;;;;;;;0.00;0.00;;;;;;;;;;4985521;28;20525;-54
2023/10/13 16:32:12;;;;;;;0.00;0.00;;;;;;;;;;4984032;28;20030;-56
2023/10/13 16:34:38;;;;;;;0.00;0.00;;;;;;;;;;4992739;28;20037;-54
2023/10/13 16:37:05;;;;;;;0.00;0.00;;;;;;;;;;4985542;28;20042;-52
2023/10/13 16:39:31;;;;;;;0.00;0.00;;;;;;;;;;4992058;28;20487;-54
2023/10/13 16:41:57;;;;;;;0.00;0.00;;;;;;;;;;4989373;28;20113;-53
2023/10/13 16:44:26;;;;;;;0.00;0.00;;;;;;;;;;4983174;28;20149;-54
2023/10/13 16:46:56;;;;;;;0.00;0.00;;;;;;;;;;4982321;28;20047;-53
2023/10/13 16:49:22;;;;;;;0.00;0.00;;;;;;;;;;4981233;28;20038;-52
2023/10/13 16:51:48;;;;;;;0.00;0.00;;;;;;;;;;4981388;28;20505;-51
2023/10/13 16:54:14;;;;;;;0.00;0.00;;;;;;;;;;4979534;28;20042;-52
2023/10/13 16:56:40;;;;;;;0.00;0.00;;;;;;;;;;4984312;28;20046;-50
2023/10/13 16:59:07;;;;;;;0.00;0.00;;;;;;;;;;4978892;28;20046;-53
2023/10/13 17:01:33;;;;;;;0.00;0.00;;;;;;;;;;4987748;28;20113;-52
2023/10/13 17:03:59;;;;;;;0.00;0.00;;;;;;;;;;4991153;28;20076;-53
2023/10/13 17:06:25;;;;;;;0.00;0.00;;;;;;;;;;4983771;28;20045;-56
2023/10/13 17:08:52;;;;;;;0.00;0.00;;;;;;;;;;4979626;28;20554;-58
2023/10/13 17:11:19;;;;;;;0.00;0.00;;;;;;;;;;4981403;28;20041;-57
2023/10/13 17:13:46;;;;;;;0.00;0.00;;;;;;;;;;4980870;28;20687;-59
2023/10/13 17:16:13;;;;;;;0.00;0.00;;;;;;;;;;4982037;28;20569;-56
2023/10/13 17:18:39;;;;;;;0.00;0.00;;;;;;;;;;4983634;28;20116;-57
2023/10/13 17:21:13;;;;;;;0.00;0.00;;;;;;;;;;4986961;28;20216;-55
2023/10/13 17:23:39;;;;;;;0.00;0.00;;;;;;;;;;4994931;28;20048;-57
2023/10/13 17:26:06;;;;;;;0.00;0.00;;;;;;;;;;4991070;28;20046;-57
2023/10/13 17:28:33;;;;;;;0.00;0.00;;;;;;;;;;4985463;28;20478;-57
2023/10/13 17:30:59;;;;;;;0.00;0.00;;;;;;;;;;4984443;28;20414;-56
2023/10/13 17:33:25;;;;;;;0.00;0.00;;;;;;;;;;4985750;28;20101;-58
2023/10/13 17:35:51;;;;;;;0.00;0.00;;;;;;;;;;4989980;28;20037;-57
2023/10/13 17:38:16;;;;;;;0.00;0.00;;;;;;;;;;4983158;28;20038;-56
2023/10/13 17:40:42;;;;;;;0.00;0.00;;;;;;;;;;4985559;28;20049;-57
2023/10/13 17:43:08;;;;;;;0.00;0.00;;;;;;;;;;4987938;28;20050;-56
2023/10/13 17:45:35;;;;;;;0.00;0.00;;;;;;;;;;4980053;28;20031;-56
2023/10/13 17:48:01;;;;;;;0.00;0.00;;;;;;;;;;4983611;28;20078;-56
2023/10/13 17:50:28;;;;;;;0.00;0.00;;;;;;;;;;4991827;28;20379;-56
2023/10/13 17:52:54;;;;;;;0.00;0.00;;;;;;;;;;4983911;28;20038;-56
2023/10/13 17:55:20;;;;;;;0.00;0.00;;;;;;;;;;4984814;28;20034;-56
2023/10/13 17:57:46;;;;;;;0.00;0.00;;;;;;;;;;4986003;28;20027;-57
2023/10/13 18:00:14;;;;;;;0.00;0.00;;;;;;;;;;4986651;28;20068;-57
2023/10/13 18:02:44;;;;;;;0.00;0.00;;;;;;;;;;4982464;28;20513;-57
2023/10/13 18:05:14;;;;;;;0.00;0.00;;;;;;;;;;4982333;28;20481;-57
2023/10/13 18:07:41;;;;;;;0.00;0.00;;;;;;;;;;4988480;28;20820;-56
2023/10/13 18:10:09;;;;;;;0.00;0.00;;;;;;;;;;4988785;28;20034;-56
2023/10/13 18:12:36;;;;;;;0.00;0.00;;;;;;;;;;4990239;28;20069;-57
2023/10/13 18:15:03;;;;;;;0.00;0.00;;;;;;;;;;4980827;28;20366;-56
2023/10/13 18:17:31;;;;;;;0.00;0.00;;;;;;;;;;4988111;28;20034;-55
2023/10/13 18:19:57;;;;;;;0.00;0.00;;;;;;;;;;4997099;28;20108;-57
2023/10/13 18:22:24;;;;;;;0.00;0.00;;;;;;;;;;5000112;28;20386;-56
2023/10/13 18:24:51;;;;;;;0.00;0.00;;;;;;;;;;4987594;28;20074;-56